Date,TemperatureHighF,TemperatureAvgF,TemperatureLowF,DewpointHighF,DewpointAvgF,DewpointLowF,HumidityHigh,HumidityAvg,HumidityLow,PressureMaxIn,PressureMinIn,WindSpeedMaxMPH,WindSpeedAvgMPH,GustSpeedMaxMPH,PrecipitationSumIn
2013-1-1,52.0,47.9,40.0,51.0,46.4,39.0,98,96,83,30.13,29.99,7,1,0,1.34
2013-1-2,40.0,36.1,34.0,39.0,34.1,32.0,96,93,89,30.27,30.11,7,3,0,0.05
2013-1-3,45.0,34.9,27.0,32.0,30.1,26.0,95,84,56,30.45,30.24,6,1,0,0.00
2013-1-4,47.0,34.4,25.0,29.0,26.8,23.0,95,76,47,30.52,30.41,5,1,0,0.00
2013-1-5,50.0,37.2,25.0,39.0,31.1,24.0,97,81,46,30.48,30.30,2,0,0,0.07
2013-1-6,49.0,41.3,33.0,42.0,38.0,32.0,98,89,68,30.38,30.23,7,1,0,0.09
2013-1-7,54.0,37.4,28.0,35.0,30.9,26.0,93,79,47,30.46,30.29,5,1,0,0.00
2013-1-8,60.0,46.6,31.0,46.0,39.4,28.0,94,77,58,30.40,30.25,6,2,0,0.00
2013-1-9,59.0,54.8,50.0,58.0,52.9,46.0,98,94,82,30.40,30.30,4,1,0,0.27
2013-1-10,67.0,61.7,58.0,63.0,59.5,56.0,97,92,86,30.35,30.02,8,4,0,0.28
2013-1-11,69.0,65.7,63.0,65.0,63.1,61.0,99,92,83,30.10,30.01,8,3,0,0.06
2013-1-12,72.0,67.9,65.0,68.0,64.8,61.0,99,90,80,30.05,29.91,6,2,0,0.09
2013-1-13,70.0,61.6,41.0,67.0,59.1,39.0,98,91,80,30.16,29.85,7,3,0,0.85
2013-1-14,41.0,36.7,33.0,39.0,35.3,32.0,97,94,91,30.32,30.16,10,5,0,1.28
2013-1-15,41.0,37.4,35.0,40.0,36.4,34.0,98,97,95,30.22,30.00,6,2,0,1.32
2013-1-16,39.0,38.0,37.0,38.0,37.0,36.0,98,97,95,30.14,30.01,5,1,0,0.45
2013-1-17,40.0,36.4,31.0,38.0,34.4,30.0,98,92,81,30.45,29.96,8,3,0,0.26
2013-1-18,35.0,31.8,28.0,34.0,30.5,27.0,98,95,92,30.60,30.45,4,1,0,0.00
2013-1-19,43.0,37.6,33.0,35.0,33.6,31.0,92,85,74,30.27,30.26,0,0,0,0.00
2013-1-20,60.0,40.5,29.0,42.0,34.9,28.0,99,83,46,30.30,30.16,4,1,0,0.00
2013-1-21,47.0,36.6,30.0,31.0,24.8,19.0,97,66,35,30.31,30.16,7,2,0,0.00
2013-1-22,40.0,32.6,25.0,23.0,17.5,14.0,73,54,40,30.46,30.32,6,2,0,0.00
2013-1-23,55.0,44.6,34.0,40.0,30.9,20.0,75,59,46,30.43,30.21,6,2,0,0.00
2013-1-24,46.0,41.2,35.0,40.0,27.1,18.0,86,59,38,30.43,30.23,8,4,0,0.00
2013-1-25,50.0,44.4,39.0,46.0,36.0,20.0,97,76,41,30.32,30.13,5,2,0,0.15
2013-1-26,53.0,41.8,33.0,38.0,34.8,32.0,96,78,51,30.37,30.24,4,2,0,0.01
2013-1-27,52.0,46.4,38.0,42.0,38.5,33.0,89,74,66,30.40,30.31,6,2,0,0.00
2013-1-28,65.0,55.5,48.0,56.0,47.9,38.0,91,76,65,30.34,30.18,7,3,0,0.00
2013-1-29,70.0,61.7,53.0,65.0,58.9,51.0,96,90,83,30.19,29.72,6,2,0,0.00
2013-1-30,71.0,55.5,39.0,66.0,51.9,28.0,98,88,65,29.96,29.56,12,4,0,1.50
2013-1-31,51.0,41.2,33.0,32.0,29.6,28.0,85,65,43,30.22,29.96,7,3,0,0.02
2013-2-1,43.0,31.4,25.0,35.0,19.4,14.0,83,62,38,30.51,30.20,7,2,0,0.00
2013-2-2,44.0,33.9,24.0,39.0,28.7,20.0,98,82,62,30.40,30.17,4,1,0,0.06
2013-2-3,56.0,42.0,30.0,43.0,32.3,27.0,99,73,37,30.22,30.09,7,2,0,0.01
2013-2-4,53.0,41.0,30.0,38.0,32.6,28.0,94,74,40,30.17,29.98,4,1,0,0.00
2013-2-5,64.0,50.4,40.0,49.0,43.5,37.0,96,78,48,30.09,29.94,5,1,0,0.01
2013-2-6,66.0,47.9,37.0,49.0,40.3,36.0,99,79,37,30.23,30.09,3,0,0,0.00
2013-2-7,59.0,51.6,46.0,50.0,46.8,42.0,94,84,68,30.12,29.95,6,1,0,0.03
2013-2-8,50.0,45.3,36.0,48.0,41.7,31.0,98,87,74,30.31,29.93,10,3,0,0.32
2013-2-9,61.0,44.8,32.0,39.0,33.8,29.0,89,68,34,30.38,30.18,6,2,0,0.00
2013-2-10,60.0,53.2,50.0,58.0,45.1,35.0,96,76,52,30.21,29.93,9,4,0,0.52
2013-2-11,60.0,52.8,45.0,59.0,48.9,42.0,99,87,63,30.21,29.96,3,0,0,0.03
2013-2-12,52.0,45.8,41.0,43.0,38.9,34.0,94,79,51,30.19,29.80,4,1,0,0.18
2013-2-13,47.0,43.5,36.0,45.0,40.9,34.0,98,91,81,30.07,29.72,5,2,0,0.15
2013-2-14,59.0,43.7,31.0,43.0,37.3,30.0,98,80,46,30.15,30.03,6,1,0,0.00
2013-2-15,57.0,43.6,32.0,44.0,36.2,30.0,99,77,52,30.17,30.07,7,2,0,0.00
2013-2-16,41.0,34.9,27.0,30.0,20.9,15.0,76,57,40,30.27,30.13,8,3,0,0.00
2013-2-17,48.0,33.4,19.0,26.0,20.2,15.0,87,61,33,30.38,30.24,5,1,0,0.00
2013-2-18,62.0,47.6,30.0,43.0,32.5,23.0,86,58,40,30.33,29.93,13,3,0,0.17
2013-2-19,53.0,46.2,32.0,48.0,33.8,19.0,97,66,30,30.27,29.94,6,2,0,0.49
2013-2-20,38.0,33.9,26.0,25.0,21.8,19.0,91,62,46,30.34,30.22,8,2,0,0.00
2013-2-21,57.0,43.4,32.0,46.0,31.3,21.0,96,66,31,30.24,29.86,10,3,0,0.54
2013-2-22,52.0,49.3,46.0,49.0,47.0,45.0,96,92,87,30.10,29.95,7,3,0,0.57
2013-2-23,52.0,46.2,36.0,47.0,44.1,35.0,98,93,80,30.05,29.90,3,1,0,0.11
2013-2-24,59.0,44.0,31.0,38.0,33.4,30.0,98,70,35,30.13,29.98,6,2,0,0.00
2013-2-25,61.0,48.5,37.0,46.0,38.8,31.0,93,71,48,29.98,29.55,12,4,0,0.10
2013-2-26,50.0,45.7,41.0,46.0,41.3,36.0,97,85,66,29.83,29.47,11,6,0,0.20
2013-2-27,55.0,45.6,41.0,40.0,35.9,33.0,78,69,54,29.97,29.82,7,3,0,0.02
2013-2-28,43.0,39.2,36.0,36.0,30.1,27.0,80,70,63,30.11,29.92,5,2,0,0.00
2013-3-1,40.0,36.9,33.0,33.0,31.3,29.0,95,81,71,30.12,30.06,4,1,0,0.01
2013-3-2,37.0,33.8,31.0,33.0,30.5,26.0,95,87,75,30.19,30.07,4,1,0,0.03
2013-3-3,45.0,34.1,28.0,27.0,22.8,17.0,84,65,34,30.23,30.12,6,2,0,0.00
2013-3-4,58.0,44.8,28.0,41.0,30.5,24.0,87,60,37,30.22,29.92,6,2,0,0.00
2013-3-5,61.0,50.7,36.0,57.0,45.4,28.0,95,82,59,30.08,29.68,11,5,0,0.58
2013-3-6,44.0,37.6,32.0,32.0,27.8,22.0,83,68,61,30.32,30.08,6,3,0,0.00
2013-3-7,51.0,37.9,27.0,36.0,30.2,25.0,93,76,54,30.41,30.30,8,2,0,0.00
2013-3-8,63.0,44.0,29.0,37.0,30.7,26.0,92,64,25,30.43,30.25,4,1,0,0.00
2013-3-9,67.0,52.5,36.0,40.0,35.3,30.0,84,54,34,30.28,30.08,5,2,0,0.00
2013-3-10,73.0,63.0,49.0,51.0,42.9,36.0,62,48,37,30.11,29.83,10,4,0,0.00
2013-3-11,67.0,51.3,40.0,55.0,46.3,34.0,97,84,55,30.01,29.79,8,2,0,1.13
2013-3-12,57.0,42.8,30.0,38.0,34.1,28.0,96,73,44,30.21,30.00,5,2,0,0.00
2013-3-13,51.0,41.1,31.0,34.0,28.2,22.0,95,64,35,30.41,30.19,7,2,0,0.00
2013-3-14,55.0,40.7,25.0,33.0,24.5,20.0,85,56,28,30.50,30.28,7,2,0,0.00
2013-3-15,77.0,55.6,34.0,50.0,40.2,29.0,84,59,35,30.28,29.93,9,3,0,0.00
2013-3-16,77.0,64.1,52.0,50.0,47.0,44.0,84,56,36,29.98,29.81,9,4,0,0.00
2013-3-17,71.0,59.9,49.0,56.0,50.9,45.0,93,74,49,29.98,29.81,9,3,0,0.00
2013-3-18,65.0,60.3,51.0,62.0,57.1,48.0,97,89,77,29.95,29.73,9,4,0,0.42
2013-3-19,61.0,50.1,36.0,48.0,36.2,24.0,98,64,29,30.17,29.95,8,3,0,0.01
2013-3-20,57.0,46.3,37.0,33.0,28.3,22.0,79,52,30,30.21,30.00,7,2,0,0.00
2013-3-21,47.0,37.4,27.0,30.0,20.9,15.0,74,52,32,30.15,29.97,9,3,0,0.00
2013-3-22,48.0,43.6,38.0,38.0,32.7,25.0,82,66,52,30.08,29.98,5,1,0,0.00
2013-3-23,55.0,49.3,45.0,52.0,47.2,41.0,97,92,78,29.99,29.68,6,2,0,0.66
2013-3-24,63.0,52.2,40.0,55.0,47.1,28.0,97,84,63,29.82,29.48,11,5,0,1.08
2013-3-25,40.0,36.7,35.0,29.0,26.2,24.0,73,66,57,30.19,29.82,8,4,0,0.00
2013-3-26,41.0,36.4,32.0,31.0,28.7,27.0,81,73,63,30.40,30.19,5,2,0,0.00
2013-3-27,53.0,39.6,25.0,35.0,30.0,23.0,95,71,43,30.47,30.31,6,2,0,0.00
2013-3-28,63.0,46.0,31.0,40.0,33.9,29.0,96,68,35,30.42,30.26,6,1,0,0.00
2013-3-29,68.0,52.5,37.0,44.0,38.8,34.0,92,63,36,30.33,30.13,7,1,0,0.00
2013-3-30,69.0,56.4,47.0,57.0,48.1,-99.9,98,78,54,30.19,29.97,5,1,0,0.43
2013-3-31,66.0,58.5,55.0,62.0,56.9,54.0,98,95,80,29.97,29.85,4,1,0,0.32
2013-4-1,68.0,57.1,49.0,55.0,50.6,42.0,98,81,54,30.11,29.91,6,1,0,0.00
2013-4-2,55.0,48.9,42.0,42.0,32.2,28.0,69,53,38,30.26,30.10,8,4,0,0.00
2013-4-3,57.0,48.3,43.0,46.0,34.5,28.0,94,61,34,30.23,30.14,9,4,0,0.09
2013-4-4,47.0,45.5,44.0,45.0,43.5,42.0,95,93,88,30.16,29.99,8,3,0,0.46
2013-4-5,66.0,51.6,43.0,48.0,43.4,39.0,98,77,39,30.14,30.02,7,2,0,0.01
2013-4-6,75.0,55.7,38.0,48.0,42.1,37.0,98,67,30,30.20,29.99,6,1,0,0.00
2013-4-7,74.0,59.6,46.0,56.0,48.9,42.0,93,70,42,30.16,29.97,7,2,0,0.00
2013-4-8,79.0,65.1,51.0,62.0,55.9,48.0,95,74,52,30.07,29.93,10,2,0,0.00
2013-4-9,83.0,68.3,56.0,65.0,59.0,53.0,94,74,49,30.12,29.93,7,2,0,0.00
2013-4-10,85.0,73.4,59.0,64.0,59.8,55.0,93,65,41,30.05,29.79,8,2,0,0.00
2013-4-11,76.0,68.1,56.0,67.0,61.7,54.0,98,81,63,29.82,29.52,11,3,0,0.43
2013-4-12,66.0,53.5,42.0,54.0,44.6,40.0,97,75,42,30.01,29.70,7,2,0,0.14
2013-4-13,72.0,55.0,40.0,50.0,44.9,39.0,98,73,38,30.11,29.95,6,1,0,0.00
2013-4-14,63.0,55.7,46.0,57.0,49.9,44.0,95,82,54,30.02,29.85,7,2,0,0.01
2013-4-15,79.0,66.2,50.0,65.0,59.0,49.0,98,79,59,30.04,29.90,8,2,0,0.01
2013-4-16,82.0,71.3,64.0,72.0,65.2,60.0,93,82,66,30.14,30.03,5,2,0,0.00
2013-4-17,87.0,74.8,64.0,73.0,66.9,62.0,98,78,54,30.15,29.95,7,2,0,0.00
2013-4-18,82.0,74.0,67.0,66.0,63.5,61.0,88,71,51,29.97,29.64,7,3,0,0.00
2013-4-19,75.0,51.1,39.0,67.0,45.4,35.0,96,82,57,30.18,29.62,7,3,0,1.35
2013-4-20,63.0,48.2,33.0,44.0,36.8,32.0,98,70,35,30.30,30.18,8,2,0,0.00
2013-4-21,70.0,54.1,40.0,48.0,42.5,37.0,95,68,36,30.36,30.18,5,1,0,0.00
2013-4-22,73.0,59.8,47.0,55.0,48.0,42.0,92,67,44,30.29,30.07,6,2,0,0.00
2013-4-23,76.0,61.8,50.0,59.0,51.3,43.0,94,71,49,30.17,29.97,8,2,0,0.00
2013-4-24,67.0,57.8,47.0,60.0,53.4,41.0,96,86,72,30.28,29.96,8,3,0,0.26
2013-4-25,67.0,52.4,40.0,46.0,40.7,37.0,92,67,34,30.38,30.25,7,3,0,0.00
2013-4-26,74.0,56.6,39.0,52.0,44.3,38.0,97,68,32,30.37,30.20,8,2,0,0.01
2013-4-27,74.0,63.4,55.0,66.0,58.4,52.0,95,84,72,30.31,29.98,6,2,0,0.10
2013-4-28,67.0,62.5,59.0,66.0,61.1,58.0,98,95,86,30.00,29.91,6,2,0,1.33
2013-4-29,73.0,62.8,52.0,62.0,58.0,51.0,98,86,59,30.01,29.89,5,1,0,0.00
2013-4-30,81.0,64.0,48.0,64.0,56.1,47.0,99,79,48,30.03,29.90,5,1,0,0.01
2013-5-1,75.0,67.9,60.0,64.0,60.6,55.0,92,78,64,30.11,30.01,7,3,0,0.00
2013-5-2,70.0,65.5,60.0,63.0,58.6,54.0,85,78,70,30.11,30.04,6,4,0,0.00
2013-5-3,73.0,64.5,48.0,61.0,57.4,47.0,96,79,62,30.05,29.83,9,5,0,0.37
2013-5-4,53.0,46.1,41.0,48.0,44.1,40.0,98,93,80,30.02,29.90,5,1,0,2.45
2013-5-5,60.0,49.5,40.0,52.0,47.2,39.0,98,92,69,29.92,29.82,5,1,0,0.30
2013-5-6,56.0,51.5,49.0,55.0,50.5,48.0,98,97,93,29.95,29.80,5,1,0,1.83
2013-5-7,71.0,55.4,42.0,59.0,51.2,41.0,99,87,59,30.02,29.92,6,1,0,0.07
2013-5-8,79.0,62.3,48.0,65.0,56.9,47.0,99,84,54,30.08,29.96,7,1,0,0.00
2013-5-9,83.0,66.1,50.0,67.0,58.9,49.0,99,81,50,30.12,29.94,4,1,0,0.00
2013-5-10,75.0,63.1,58.0,67.0,59.1,-99.9,98,92,74,30.04,29.88,5,1,0,0.46
2013-5-11,76.0,65.5,52.0,68.0,60.2,-99.9,99,86,65,30.02,29.87,4,1,0,0.00
2013-5-12,67.0,57.3,43.0,54.0,43.8,38.0,97,64,36,30.18,30.02,8,3,0,0.00
2013-5-13,71.0,55.0,37.0,52.0,44.2,36.0,97,71,39,30.29,30.12,5,1,0,0.00
2013-5-14,83.0,64.4,46.0,62.0,54.5,45.0,99,74,47,30.23,30.01,8,3,0,0.00
2013-5-15,85.0,69.2,53.0,64.0,58.0,52.0,99,72,40,30.16,29.94,6,2,0,0.00
2013-5-16,83.0,62.6,57.0,68.0,40.3,-99.9,98,81,42,30.04,29.91,6,1,0,0.00
2013-5-17,74.0,66.7,60.0,71.0,60.7,-99.9,98,94,84,30.03,29.94,2,1,0,0.64
2013-5-18,82.0,72.9,66.0,75.0,69.8,65.0,99,91,75,30.00,29.91,5,1,0,0.02
2013-5-19,84.0,73.7,62.0,76.0,69.9,59.0,99,89,71,29.99,29.91,9,2,0,0.00
2013-5-20,88.0,73.0,60.0,74.0,67.5,59.0,97,84,59,30.04,29.89,4,1,0,0.00
2013-5-21,89.0,75.6,62.0,76.0,68.9,61.0,99,82,55,29.99,29.76,6,1,0,0.00
2013-5-22,82.0,72.5,63.0,71.0,67.3,62.0,97,84,64,29.90,29.78,7,2,0,0.00
2013-5-23,83.0,70.7,57.0,70.0,62.3,56.0,99,77,51,30.04,29.89,6,2,0,0.00
2013-5-24,74.0,63.6,51.0,58.0,53.3,48.0,95,72,42,30.27,30.04,8,3,0,0.00
2013-5-25,81.0,62.1,45.0,57.0,50.8,44.0,98,72,30,30.33,30.15,3,1,0,0.00
2013-5-26,87.0,67.0,48.0,67.0,56.4,47.0,99,74,37,30.27,30.06,3,1,0,0.00
2013-5-27,86.0,70.6,56.0,67.0,61.7,55.0,98,77,48,30.18,30.00,8,2,0,0.00
2013-5-28,87.0,73.2,58.0,67.0,63.2,57.0,99,74,48,30.11,29.97,8,2,0,0.00
2013-5-29,89.0,78.2,66.0,71.0,65.6,60.0,83,66,50,30.10,29.96,6,2,0,0.00
2013-5-30,86.0,77.4,67.0,73.0,68.5,64.0,90,75,60,30.10,29.96,6,2,0,0.00
2013-5-31,88.0,78.2,71.0,73.0,69.2,66.0,86,75,59,30.06,29.92,7,2,0,0.00
2013-6-1,86.0,75.2,67.0,74.0,69.7,65.0,96,84,67,30.00,29.85,8,3,0,0.36
2013-6-2,82.0,74.0,68.0,71.0,69.2,67.0,99,86,64,29.94,29.82,5,1,0,0.01
2013-6-3,83.0,72.9,66.0,69.0,64.8,61.0,97,77,51,29.96,29.83,6,2,0,0.00
2013-6-4,87.0,72.7,59.0,67.0,62.4,57.0,98,73,45,29.99,29.86,4,1,0,0.00
2013-6-5,82.0,71.6,63.0,73.0,67.5,62.0,98,88,67,29.96,29.83,6,1,0,0.23
2013-6-6,85.0,74.0,65.0,74.0,69.3,64.0,99,86,62,29.85,29.66,5,1,0,0.01
2013-6-7,80.0,72.0,65.0,72.0,68.4,64.0,98,89,69,29.86,29.69,2,0,0,0.00
2013-6-8,84.0,72.2,63.0,70.0,65.1,62.0,99,81,49,30.01,29.85,5,1,0,0.00
2013-6-9,88.0,74.8,67.0,75.0,70.1,65.0,96,86,57,30.01,29.82,5,2,0,0.09
2013-6-10,87.0,76.3,67.0,72.0,69.1,66.0,98,81,51,29.95,29.82,7,3,0,0.31
2013-6-11,94.0,80.6,69.0,76.0,72.6,68.0,99,79,49,29.99,29.87,6,2,0,0.00
2013-6-12,96.0,81.7,71.0,78.0,73.7,68.0,99,79,41,30.01,29.87,6,2,0,0.00
2013-6-13,91.0,79.7,69.0,79.0,73.0,66.0,99,81,65,29.92,29.71,8,3,0,0.00
2013-6-14,85.0,75.1,64.0,67.0,62.2,57.0,93,67,38,29.99,29.86,8,3,0,0.00
2013-6-15,90.0,74.3,58.0,69.0,64.3,57.0,98,74,47,30.06,29.93,5,1,0,0.00
2013-6-16,90.0,76.4,65.0,76.0,69.5,64.0,98,81,59,30.05,29.89,9,2,0,0.02
2013-6-17,90.0,75.6,70.0,77.0,71.4,69.0,96,88,56,29.98,29.85,9,1,0,0.46
2013-6-18,84.0,74.3,69.0,75.0,70.2,66.0,99,88,66,29.92,29.81,8,2,0,0.30
2013-6-19,91.0,76.0,64.0,72.0,67.6,63.0,99,78,44,30.01,29.90,6,1,0,0.00
2013-6-20,89.0,76.0,66.0,73.0,69.0,65.0,98,81,54,30.10,30.01,5,1,0,0.00
2013-6-22,89.0,83.4,70.0,71.0,68.1,65.0,90,61,49,30.13,29.98,5,2,0,0.00
2013-6-23,90.0,77.2,64.0,73.0,68.9,63.0,98,78,53,30.12,29.98,5,1,0,0.00
2013-6-24,91.0,76.6,68.0,76.0,71.4,67.0,98,85,59,30.15,29.99,5,1,0,0.00
2013-6-25,91.0,77.9,71.0,76.0,73.2,70.0,98,87,58,30.09,29.93,4,1,0,0.00
2013-6-26,91.0,80.5,70.0,77.0,73.1,69.0,99,80,59,30.01,29.81,7,2,0,0.00
2013-6-27,94.0,80.8,69.0,80.0,73.5,68.0,98,81,53,29.91,29.73,8,1,0,0.22
2013-6-28,88.0,78.2,70.0,76.0,71.8,69.0,99,83,59,29.81,29.62,6,1,0,0.00
2013-6-29,90.0,78.8,66.0,73.0,65.6,59.0,98,69,37,29.68,29.57,6,2,0,0.01
2013-6-30,87.0,74.7,61.0,69.0,64.6,60.0,99,74,42,29.75,29.63,5,1,0,0.00
2013-7-1,84.0,71.8,62.0,71.0,65.6,61.0,99,83,55,29.87,29.73,5,1,0,0.01
2013-7-2,85.0,73.9,64.0,70.0,66.2,63.0,98,79,52,30.01,29.86,6,1,0,0.00
2013-7-3,84.0,73.3,66.0,73.0,69.1,64.0,98,88,65,30.06,29.97,4,1,0,0.02
2013-7-4,75.0,71.4,68.0,74.0,70.2,67.0,99,97,94,30.05,29.97,2,0,0,1.07
2013-7-5,78.0,72.4,70.0,74.0,71.2,69.0,99,97,85,30.08,30.01,3,1,0,1.14
2013-7-6,74.0,71.9,70.0,73.0,71.2,69.0,99,97,94,30.09,30.01,1,0,0,0.43
2013-7-7,87.0,76.9,70.0,78.0,73.0,69.0,99,89,67,30.10,29.99,6,1,0,0.20
2013-7-8,87.0,75.4,70.0,79.0,71.5,-99.9,100,92,71,30.12,30.00,3,0,0,0.09
2013-7-9,91.0,80.0,74.0,78.0,75.3,73.0,99,87,61,30.12,29.96,4,1,0,0.01
2013-7-10,92.0,79.2,70.0,80.0,71.7,-99.9,99,83,60,30.03,29.82,7,1,0,1.39
2013-7-11,88.0,76.2,69.0,79.0,73.0,69.0,99,91,71,29.96,29.79,4,1,0,1.72
2013-7-12,86.0,76.9,69.0,74.0,69.3,62.0,98,79,56,29.93,29.84,7,3,0,0.00
2013-7-13,88.0,76.5,62.0,75.0,68.9,60.0,97,78,60,30.00,29.87,4,1,0,0.00
2013-7-14,89.0,79.2,73.0,76.0,72.6,70.0,95,81,60,30.09,29.97,6,2,0,0.02
2013-7-15,89.0,79.3,74.0,75.0,72.5,71.0,95,81,57,30.19,30.08,6,2,0,0.02
2013-7-16,91.0,80.4,73.0,77.0,73.2,70.0,97,80,58,30.24,30.13,5,1,0,0.00
2013-7-17,95.0,79.7,69.0,78.0,73.6,68.0,99,84,48,30.25,30.06,4,1,0,0.00
2013-7-18,92.0,80.9,72.0,78.0,73.2,70.0,95,79,58,30.13,29.95,4,1,0,0.00
2013-7-19,92.0,79.3,69.0,77.0,72.9,68.0,99,83,56,30.06,29.86,4,1,0,0.00
2013-7-20,90.0,79.1,69.0,77.0,72.1,-99.9,98,82,61,29.97,29.82,6,1,0,0.00
2013-7-21,90.0,76.6,71.0,79.0,73.1,70.0,99,90,59,29.98,29.85,6,1,0,0.45
2013-7-22,80.0,73.7,70.0,76.0,71.7,69.0,99,94,78,29.93,29.84,6,1,0,0.08
2013-7-23,79.0,73.8,70.0,76.0,72.3,69.0,99,95,82,29.93,29.80,9,1,0,0.50
2013-7-24,87.0,75.2,69.0,77.0,72.6,69.0,99,92,66,29.88,29.77,3,0,0,0.00
2013-7-25,86.0,75.4,66.0,72.0,67.4,65.0,97,78,52,29.99,29.86,5,1,0,0.00
2013-7-26,88.0,73.7,61.0,72.0,67.5,60.0,99,83,53,30.03,29.91,4,0,0,0.00
2013-7-27,86.0,76.7,69.0,74.0,69.9,65.0,99,81,50,29.94,29.82,6,1,0,0.00
2013-7-28,85.0,75.4,68.0,73.0,68.2,62.0,98,80,61,30.04,29.90,5,1,0,0.00
2013-7-29,85.0,72.0,62.0,66.0,62.8,60.0,95,75,46,30.15,30.03,4,1,0,0.00
2013-7-30,90.0,74.7,59.0,76.0,68.4,58.0,99,83,60,30.18,30.00,5,1,0,0.07
2013-7-31,84.0,75.3,71.0,79.0,73.2,70.0,99,94,82,30.06,29.87,6,1,0,1.49
2013-8-1,88.0,77.0,69.0,76.0,71.5,68.0,99,85,59,29.97,29.87,5,1,0,0.01
2013-8-2,88.0,75.0,64.0,73.0,68.5,63.0,99,83,54,30.01,29.91,3,1,0,0.00
2013-8-3,83.0,75.1,65.0,77.0,71.7,64.0,100,90,76,30.02,29.94,5,0,0,0.00
2013-8-4,89.0,78.0,68.0,76.0,72.0,66.0,99,83,59,30.05,29.93,6,2,0,0.00
2013-8-5,83.0,73.9,67.0,74.0,68.8,65.0,94,85,58,30.04,29.91,3,0,0,0.00
2013-8-6,83.0,75.0,69.0,78.0,73.2,68.0,98,94,81,29.97,29.89,3,0,0,0.01
2013-8-7,91.0,77.2,72.0,81.0,74.6,71.0,99,92,71,29.96,29.85,4,1,0,0.47
2013-8-8,91.0,77.1,70.0,81.0,73.8,69.0,98,91,73,29.97,29.86,5,1,0,0.07
2013-8-9,91.0,79.1,71.0,81.0,75.2,70.0,99,89,66,30.01,29.90,5,1,0,0.07
2013-8-10,84.0,75.7,72.0,78.0,74.1,71.0,99,96,80,30.07,30.00,5,0,0,0.24
2013-8-11,91.0,78.8,69.0,80.0,74.5,69.0,100,88,60,30.10,29.97,6,1,0,0.00
2013-8-12,90.0,77.2,71.0,79.0,74.0,70.0,99,91,63,30.06,29.88,6,1,0,0.01
2013-8-13,86.0,77.8,73.0,77.0,71.5,-99.9,98,86,66,29.94,29.83,5,1,0,0.01
2013-8-14,83.0,73.0,68.0,72.0,61.2,-99.9,90,76,55,30.01,29.89,7,4,0,0.00
2013-8-15,80.0,62.8,59.0,71.0,46.7,-99.9,96,78,71,30.02,29.94,3,1,0,0.00
2013-8-16,74.0,67.3,64.0,67.0,60.0,-99.9,95,84,77,30.06,29.99,3,1,0,0.00
2013-8-17,71.0,67.7,67.0,67.0,63.2,-99.9,96,88,84,30.09,30.02,2,0,0,0.00
2013-8-18,77.0,71.0,67.0,72.0,68.5,65.0,98,92,80,30.13,30.03,4,0,0,0.07
2013-8-19,83.0,69.5,65.0,77.0,58.6,-99.9,99,89,74,30.08,29.95,3,1,0,0.31
2013-8-20,88.0,74.8,69.0,78.0,70.7,-99.9,99,91,70,30.09,29.99,7,1,0,1.01
2013-8-21,85.0,75.8,71.0,78.0,73.2,70.0,99,92,72,30.14,30.03,7,1,0,0.69
2013-8-22,90.0,76.5,69.0,78.0,73.1,68.0,99,90,67,30.13,29.96,3,0,0,0.44
2013-8-23,90.0,77.9,69.0,78.0,73.2,69.0,100,87,55,30.05,29.91,4,0,0,0.01
2013-8-24,89.0,76.5,68.0,77.0,70.3,-99.9,99,85,63,30.16,30.01,4,1,0,0.00
2013-8-25,86.0,76.1,66.0,72.0,68.7,65.0,97,79,58,30.26,30.14,5,1,0,0.00
2013-8-26,86.0,72.2,61.0,69.0,64.8,60.0,99,81,51,30.27,30.09,3,1,0,0.00
2013-8-27,87.0,70.2,61.0,71.0,65.2,60.0,99,87,54,30.15,30.01,2,0,0,0.00
2013-8-28,90.0,81.9,70.0,76.0,73.0,69.0,97,76,56,30.00,29.93,3,1,0,0.00
2013-8-29,93.0,78.9,67.0,76.0,71.9,66.0,99,82,52,30.03,29.88,4,1,0,0.00
2013-8-30,94.0,80.6,71.0,79.0,74.4,70.0,99,83,56,29.96,29.82,3,1,0,0.00
2013-8-31,95.0,80.5,73.0,79.0,72.1,-99.9,97,80,52,29.89,29.76,4,1,0,0.00
2013-9-1,90.0,79.7,73.0,77.0,73.1,69.0,99,82,51,29.88,29.77,5,1,0,0.35
2013-9-2,84.0,75.9,70.0,75.0,72.1,69.0,98,89,71,29.94,29.80,7,1,0,0.66
2013-9-3,89.0,78.2,69.0,75.0,71.0,65.0,98,81,47,29.98,29.84,5,1,0,0.05
2013-9-4,88.0,74.4,64.0,71.0,66.5,63.0,99,80,47,30.09,29.96,4,1,0,0.00
2013-9-5,89.0,73.7,62.0,70.0,65.4,61.0,99,78,44,30.13,30.01,3,1,0,0.00
2013-9-6,89.0,74.0,63.0,72.0,66.7,62.0,99,81,45,30.12,29.97,0,0,0,0.00
2013-9-7,91.0,74.7,66.0,75.0,67.8,-99.9,99,84,52,30.07,29.92,4,0,0,0.00
2013-9-8,91.0,77.4,66.0,77.0,71.4,65.0,99,84,52,29.99,29.86,2,0,0,0.00
2013-9-9,91.0,78.9,71.0,77.0,73.1,70.0,99,84,57,30.03,29.93,2,0,0,0.00
2013-9-10,92.0,79.5,72.0,77.0,72.8,71.0,96,82,52,30.13,30.02,4,1,0,0.00
2013-9-11,91.0,78.9,70.0,74.0,70.8,67.0,98,79,46,30.17,30.01,3,1,0,0.00
2013-9-12,91.0,76.9,68.0,74.0,70.2,67.0,99,82,52,30.06,29.84,7,1,0,0.12
2013-9-13,82.0,73.4,64.0,72.0,62.4,54.0,99,72,41,29.95,29.84,8,3,0,0.13
2013-9-14,79.0,64.8,53.0,62.0,54.2,-99.9,95,73,46,30.05,29.93,4,1,0,0.00
2013-9-15,84.0,66.0,56.0,68.0,61.0,55.0,99,86,53,30.11,30.01,2,0,0,0.00
2013-9-16,87.0,71.5,59.0,68.0,62.0,58.0,99,76,40,30.14,30.01,5,1,0,0.00
2013-9-17,87.0,74.1,63.0,71.0,66.7,62.0,97,79,54,30.14,30.00,5,1,0,0.00
2013-9-18,72.0,69.0,67.0,67.0,63.6,62.0,89,83,79,30.14,30.08,3,1,0,0.00
2013-9-19,87.0,74.7,67.0,70.0,67.3,65.0,93,79,56,30.13,29.97,4,1,0,0.00
2013-9-20,88.0,74.5,63.0,71.0,66.9,62.0,99,80,53,30.03,29.79,5,1,0,0.02
2013-9-21,73.0,67.1,57.0,71.0,63.7,-99.9,98,92,72,29.84,29.70,6,1,0,1.99
2013-9-22,78.0,65.2,53.0,59.0,56.1,52.0,98,75,50,29.90,29.79,9,3,0,0.01
2013-9-23,83.0,66.8,51.0,65.0,59.6,50.0,99,80,50,29.98,29.86,4,1,0,0.00
2013-9-24,74.0,67.2,60.0,69.0,64.9,59.0,98,92,83,29.96,29.82,5,1,0,0.00
2013-9-25,80.0,70.9,67.0,71.0,67.7,65.0,97,90,73,29.84,29.74,3,0,0,0.00
2013-9-26,83.0,70.8,63.0,68.0,65.3,62.0,97,84,55,29.99,29.84,3,0,0,0.00
2013-9-27,83.0,67.8,57.0,69.0,61.7,56.0,99,83,49,30.11,29.98,3,1,0,0.00
2013-9-28,80.0,66.3,58.0,63.0,57.7,-99.9,98,79,48,30.19,30.03,5,1,0,0.00
2013-9-29,75.0,65.8,57.0,62.0,59.6,56.0,98,81,60,30.12,29.97,4,1,0,0.00
2013-9-30,77.0,67.9,62.0,65.0,62.0,59.0,95,82,62,30.05,29.93,4,0,0,0.02
2013-10-1,71.0,66.8,65.0,68.0,65.3,64.0,97,94,89,30.07,30.02,0,0,0,0.00
2013-10-2,85.0,72.7,62.0,71.0,67.1,61.0,99,84,57,30.13,29.98,3,0,0,0.01
2013-10-3,86.0,74.5,64.0,70.0,66.9,63.0,99,80,52,30.09,29.95,4,1,0,0.02
2013-10-4,87.0,73.8,64.0,72.0,68.1,63.0,98,84,60,30.09,29.98,5,1,0,0.00
2013-10-5,88.0,76.4,67.0,72.0,68.6,66.0,97,79,56,30.06,29.89,5,1,0,0.00
2013-10-6,82.0,71.9,57.0,72.0,66.3,53.0,94,83,67,29.93,29.76,7,2,0,0.00
2013-10-7,70.0,60.3,52.0,55.0,51.2,48.0,96,75,47,30.08,29.91,8,2,0,0.00
2013-10-8,80.0,66.2,52.0,62.0,54.5,47.0,85,67,47,30.09,29.98,7,2,0,0.00
2013-10-9,80.0,68.2,61.0,61.0,56.7,51.0,90,68,48,30.16,30.03,5,2,0,0.00
2013-10-10,82.0,67.4,58.0,64.0,60.7,57.0,97,81,50,30.14,29.98,3,0,0,0.00
2013-10-11,82.0,65.4,54.0,63.0,58.5,53.0,99,82,46,30.10,29.94,5,0,0,0.00
2013-10-12,83.0,65.2,52.0,66.0,57.4,-99.9,99,81,48,30.10,29.98,3,0,0,0.00
2013-10-13,83.0,68.6,57.0,65.0,59.7,56.0,99,77,46,30.21,30.08,8,2,0,0.00
2013-10-14,84.0,69.0,58.0,66.0,61.6,56.0,96,79,50,30.21,30.02,3,1,0,0.00
2013-10-15,77.0,68.3,62.0,63.0,61.5,60.0,95,80,59,30.11,29.96,6,1,0,0.00
2013-10-16,70.0,66.1,64.0,66.0,63.4,61.0,98,91,82,30.03,29.90,2,0,0,0.23
2013-10-17,67.0,62.1,51.0,66.0,60.5,50.0,99,95,87,30.01,29.86,4,1,0,0.22
2013-10-18,67.0,54.7,47.0,57.0,50.8,46.0,99,88,58,30.11,29.94,3,0,0,0.00
2013-10-19,69.0,56.1,46.0,57.0,50.5,-99.9,98,85,63,30.06,29.91,5,1,0,0.00
2013-10-20,68.0,50.4,38.0,48.0,41.6,37.0,98,77,33,30.14,29.99,3,0,0,0.01
2013-10-21,73.0,53.8,39.0,54.0,46.5,38.0,99,80,40,30.14,29.97,4,0,0,0.00
2013-10-22,67.0,56.1,46.0,57.0,52.1,45.0,98,87,65,30.03,29.87,4,1,0,0.00
2013-10-23,59.0,48.4,39.0,46.0,40.7,36.0,99,78,44,30.15,29.91,6,1,0,0.00
2013-10-24,62.0,48.8,37.0,47.0,42.0,36.0,98,79,53,30.33,30.14,6,1,0,0.00
2013-10-25,55.0,43.7,31.0,39.0,30.8,27.0,94,64,35,30.53,30.33,8,2,0,0.00
2013-10-26,63.0,43.8,28.0,45.0,33.6,-99.9,98,74,34,30.38,30.16,4,1,0,0.00
2013-10-27,71.0,58.7,47.0,57.0,51.5,43.0,89,78,55,30.18,30.05,3,1,0,0.00
2013-10-28,69.0,58.5,53.0,60.0,54.1,-99.9,98,89,68,30.26,30.11,4,1,0,0.04
2013-10-29,76.0,62.2,52.0,64.0,57.9,51.0,99,87,62,30.30,30.14,5,1,0,0.00
2013-10-30,81.0,65.7,57.0,64.0,58.8,56.0,98,81,46,30.27,30.06,7,1,0,0.00
2013-10-31,74.0,68.0,63.0,68.0,61.6,56.0,93,80,70,30.08,29.69,11,3,0,0.04
2013-11-1,71.0,59.3,46.0,65.0,51.9,45.0,98,80,40,29.88,29.71,8,2,0,0.04
2013-11-2,66.0,51.8,43.0,52.0,41.3,-99.9,98,74,39,30.16,29.87,5,1,0,0.00
2013-11-3,63.0,47.2,36.0,42.0,37.5,32.0,98,73,33,30.34,30.16,8,2,0,0.00
2013-11-4,68.0,52.5,37.0,44.0,40.4,35.0,95,67,37,30.41,30.26,7,2,0,0.00
2013-11-5,64.0,56.4,52.0,48.0,41.7,38.0,80,58,48,30.41,30.26,6,2,0,0.00
2013-11-6,76.0,64.9,50.0,63.0,56.6,43.0,95,75,59,30.25,30.03,8,2,0,0.25
2013-11-7,62.0,49.0,35.0,61.0,42.0,33.0,97,79,43,30.35,30.04,7,3,0,0.40
2013-11-8,60.0,42.3,30.0,37.0,32.6,27.0,97,74,30,30.44,30.27,8,1,0,0.00
2013-11-9,61.0,49.1,38.0,46.0,39.1,-99.9,93,73,44,30.36,30.22,1,0,0,0.00
2013-11-10,70.0,54.7,41.0,49.0,44.5,40.0,97,72,38,30.36,30.22,6,2,0,0.00
2013-11-11,70.0,47.5,33.0,40.0,33.7,22.0,96,68,16,30.35,30.14,2,0,0,0.00
2013-11-12,51.0,42.1,33.0,44.0,31.2,16.0,88,67,42,30.60,30.20,10,4,0,0.00
2013-11-13,50.0,35.0,25.0,23.0,19.8,16.0,87,57,26,30.72,30.51,8,2,0,0.00
2013-11-14,60.0,38.4,23.0,29.0,23.7,19.0,95,63,21,30.53,30.27,3,1,0,0.00
2013-11-15,55.0,50.6,47.0,50.0,42.7,26.0,98,76,44,30.26,30.10,3,1,0,0.01
2013-11-16,66.0,59.3,51.0,60.0,54.4,-99.9,97,87,80,30.16,30.02,5,2,0,0.01
2013-11-17,71.0,65.9,61.0,69.0,63.9,57.0,97,93,80,30.01,29.81,5,2,0,0.01
2013-11-18,65.0,56.1,48.0,58.0,44.7,36.0,96,69,34,30.19,29.91,8,2,0,0.02
2013-11-19,54.0,46.7,40.0,35.0,30.2,27.0,70,53,38,30.27,30.14,10,4,0,0.00
2013-11-20,62.0,48.4,30.0,40.0,34.5,28.0,94,62,38,30.29,30.15,7,2,0,0.00
2013-11-21,62.0,57.0,50.0,54.0,47.7,40.0,81,71,60,30.32,30.21,6,2,0,0.00
2013-11-22,64.0,58.0,51.0,61.0,54.7,49.0,97,89,80,30.29,30.18,7,2,0,0.04
2013-11-23,51.0,44.4,31.0,48.0,36.4,-99.9,94,76,54,30.47,30.26,10,6,0,0.01
2013-11-24,40.0,31.3,25.0,22.0,15.9,11.0,74,54,34,30.64,30.47,10,6,0,0.00
2013-11-25,43.0,36.5,29.0,37.0,26.0,15.0,95,68,42,30.49,30.17,4,1,0,0.29
2013-11-26,46.0,40.5,36.0,45.0,39.2,33.0,98,95,87,30.17,29.85,10,3,0,1.79
2013-11-27,36.0,31.8,24.0,33.0,23.0,16.0,87,70,52,30.42,29.94,9,3,0,0.00
2013-11-28,46.0,29.2,19.0,26.0,19.3,16.0,89,70,31,30.56,30.42,2,0,0,0.00
2013-11-29,55.0,36.0,21.0,33.0,26.1,20.0,96,72,33,30.64,30.49,3,0,0,0.00
2013-12-2,57.0,51.3,47.0,54.0,49.7,45.0,98,95,88,30.01,29.77,2,0,0,0.05
2013-12-3,61.0,55.5,50.0,58.0,54.2,49.0,98,96,91,29.84,29.77,3,1,0,0.05
2013-12-4,73.0,66.0,58.0,65.0,62.1,57.0,99,88,72,29.93,29.80,10,2,0,0.00
2013-12-5,78.0,66.7,46.0,69.0,62.9,44.0,97,88,71,30.01,29.83,7,3,0,0.00
2013-12-6,44.0,40.2,36.0,42.0,39.0,34.0,97,96,93,30.32,29.97,7,3,0,0.03
2013-12-7,36.0,33.8,33.0,34.0,30.0,-99.9,95,90,89,30.49,30.32,9,6,0,0.03
2013-12-8,50.0,41.8,36.0,50.0,40.8,33.0,99,97,90,30.32,30.10,3,0,0,0.82
2013-12-10,42.0,33.7,26.0,35.0,30.3,25.0,97,88,67,30.43,30.11,6,2,0,0.43
2013-12-11,51.0,34.0,22.0,34.0,27.5,21.0,98,81,39,30.53,30.42,5,0,0,0.01
2013-12-12,42.0,30.5,24.0,28.0,21.0,16.0,87,70,37,30.65,30.47,6,2,0,0.00
2013-12-13,48.0,36.6,22.0,33.0,26.6,20.0,93,69,44,30.46,30.15,4,0,0,0.00
2013-12-14,54.0,46.9,39.0,53.0,42.2,-99.9,98,88,58,30.14,29.82,6,2,0,0.01
2013-12-15,39.0,35.4,33.0,36.0,31.8,29.0,91,86,81,30.31,30.02,3,1,0,0.01
2013-12-16,58.0,36.2,25.0,37.0,30.9,24.0,98,83,40,30.35,30.18,5,1,0,0.00
2013-12-17,63.0,43.3,31.0,41.0,35.0,29.0,97,75,43,30.32,30.11,6,1,0,0.00
2013-12-18,55.0,37.2,26.0,33.0,27.5,22.0,97,73,31,30.44,30.27,3,0,0,0.00
2013-12-19,63.0,47.6,30.0,39.0,32.5,27.0,90,60,36,30.33,30.13,6,1,0,0.00
2013-12-20,67.0,61.4,53.0,60.0,52.0,32.0,86,72,41,30.13,29.97,5,2,0,0.00
2013-12-23,54.0,39.4,29.0,53.0,35.9,27.0,98,87,74,30.47,30.06,8,3,0,0.02
2013-12-24,37.0,30.0,26.0,27.0,21.8,16.0,91,73,52,30.60,30.46,8,2,0,0.00
2013-12-25,49.0,32.6,20.0,31.0,23.9,16.0,93,73,43,30.52,30.35,4,1,0,0.00
2013-12-26,51.0,35.4,24.0,36.0,29.5,23.0,98,81,52,30.47,30.35,4,1,0,0.00
2013-12-27,58.0,36.4,24.0,34.0,28.4,23.0,97,77,31,30.54,30.38,2,0,0,0.00
2013-12-28,45.0,38.7,31.0,41.0,34.0,-99.9,97,87,63,30.42,29.97,5,0,0,0.50
2013-12-29,53.0,43.8,38.0,45.0,41.2,37.0,98,92,68,30.12,29.94,5,0,0,0.68
2013-12-30,42.0,37.2,34.0,40.0,33.7,31.0,97,87,82,30.33,30.12,5,1,0,0.00